DRI Storm Peak Lab. Weather observations

Data are for 5 minute period ending at time listed.
 Day   Time    Ave.   Ave.  Ave.  Vector  Max.   Total    Baro.    Solar      Aerosol      Ave.  Ultrafine   Snow  
  of    of     Air    Rel.  Wind   Wind   Wind  Precip.   Pres.  Radiation   Aerosol      Ozone   Aerosol    Depth 
Year   Day     Temp.  Hum.  Speed  Dir.   Gust                               Ave.   Max.            Ave.           
2016   (MST)    F      %     mph   deg.    mph    in.      mb.     w/m2         #/cm3      ppbv    #/cm3      in.  
-------------------------------------------------------------------------------------------------------------------
 337   20:50    6.7    92    1.8   262     1.8   999.00    685.7    999.0    999000   999000   999.0    999000   999.0
 337   20:55    6.6    92    1.8   262     1.8   999.00    685.7    999.0    999000   999000   999.0    999000   999.0
 337   21:00    6.6    92    1.8   262     1.8   999.00    685.7    999.0    999000   999000   999.0    999000   999.0
 337   21:05    6.6    92    1.8   263     2.2   999.00    685.7    999.0    999000   999000   999.0    999000   999.0
 337   21:10    6.5    92    1.8   263     2.2   999.00    685.7    999.0    999000   999000   999.0    999000   999.0
 337   21:15    6.5    92    1.8   263     1.8   999.00    685.7    999.0    999000   999000   999.0    999000   999.0
 337   21:20    6.4    92    1.8   263     2.0   999.00    685.8    999.0    999000   999000   999.0    999000   999.0
 337   21:25    6.3    92    1.8   262     2.0   999.00    685.8    999.0    999000   999000   999.0    999000   999.0
 337   21:30    6.2    92    1.8   263     1.8   999.00    685.8    999.0    999000   999000   999.0    999000   999.0
 337   21:35    6.1    92    1.8   264     1.8   999.00    685.8    999.0    999000   999000   999.0    999000   999.0
 337   21:40    6.0    92    1.8   264     2.0   999.00    685.9    999.0    999000   999000   999.0    999000   999.0
 337   21:45    5.9    92    1.8   264     1.8   999.00    686.0    999.0    999000   999000   999.0    999000   999.0
 337   21:50    5.8    92    1.8   265     1.8   999.00    685.9    999.0    999000   999000   999.0    999000   999.0
 337   21:55    5.6    91    1.8   265     2.0   999.00    685.9    999.0    999000   999000   999.0    999000   999.0
 337   22:00    5.5    91    1.8   265     1.8   999.00    685.9    999.0    999000   999000   999.0    999000   999.0
 337   22:05    5.4    91    1.8   265     1.8   999.00    685.9    999.0    999000   999000   999.0    999000   999.0
 337   22:10    5.3    91    1.8   265     1.8   999.00    686.0    999.0    999000   999000   999.0    999000   999.0
 337   22:15    5.2    91    1.8   265     1.8   999.00    686.1    999.0    999000   999000   999.0    999000   999.0
 337   22:20    5.1    91    1.8   265     1.8   999.00    686.1    999.0    999000   999000   999.0    999000   999.0
 337   22:25    5.0    91    1.8   265     1.8   999.00    686.2    999.0    999000   999000   999.0    999000   999.0
 337   22:30    5.0    91    1.8   264     1.8   999.00    686.2    999.0    999000   999000   999.0    999000   999.0
 337   22:35    4.9    91    1.8   264     1.8   999.00    686.1    999.0    999000   999000   999.0    999000   999.0
 337   22:40    4.8    91    1.8   264     1.8   999.00    686.2    999.0    999000   999000   999.0    999000   999.0
 337   22:45    4.7    91    1.8   264     1.8   999.00    686.2    999.0    999000   999000   999.0    999000   999.0
 337   22:50    4.7    91    1.8   264     1.8   999.00    686.1    999.0    999000   999000   999.0    999000   999.0
 337   22:55    4.6    91    1.8   264     1.8   999.00    686.1    999.0    999000   999000   999.0    999000   999.0
 337   23:00    4.6    91    1.8   262     1.8   999.00    686.0    999.0    999000   999000   999.0    999000   999.0
 337   23:05    4.6    91    1.8   262     2.0   999.00    685.9    999.0    999000   999000   999.0    999000   999.0
 337   23:10    4.6    91    1.8   262     2.5   999.00    685.8    999.0    999000   999000   999.0    999000   999.0
 337   23:15    4.6    91    1.8   262     2.4   999.00    685.8    999.0    999000   999000   999.0    999000   999.0
 337   23:20    4.5    92    1.8   262     2.0   999.00    685.9    999.0    999000   999000   999.0    999000   999.0
 337   23:25    4.5    92    1.8   262     2.2   999.00    685.8    999.0    999000   999000   999.0    999000   999.0
 337   23:30    4.5    92    1.8   262     2.0   999.00    685.9    999.0    999000   999000   999.0    999000   999.0
 337   23:35    4.4    92    1.8   262     1.8   999.00    685.8    999.0    999000   999000   999.0    999000   999.0
 337   23:40    4.3    91    1.8   262     1.8   999.00    685.7    999.0    999000   999000   999.0    999000   999.0
 337   23:45    4.2    91    1.8   262     1.8   999.00    685.7    999.0    999000   999000   999.0    999000   999.0
 337   23:50    4.2    91    1.8   263     2.0   999.00    685.6    999.0    999000   999000   999.0    999000   999.0
 337   23:55    4.2    91    1.8   261     2.0   999.00    685.6    999.0    999000   999000   999.0    999000   999.0
 338    0:00    4.1    91    1.8   261     2.2   999.00    685.5    999.0    999000   999000   999.0    999000   999.0
 338    0:05    4.1    91    1.9   261     2.4   999.00    685.5    999.0    999000   999000   999.0    999000   999.0
 338    0:10    4.0    91    1.9   260     2.4   999.00    685.4    999.0    999000   999000   999.0    999000   999.0
 338    0:15    4.0    92    1.9   260     5.0   999.00    685.4    999.0    999000   999000   999.0    999000   999.0
 338    0:20    4.0    92    2.0   260     3.7   999.00    685.4    999.0    999000   999000   999.0    999000   999.0
 338    0:25    3.9    92    1.8   260     2.2   999.00    685.3    999.0    999000   999000   999.0    999000   999.0
 338    0:30    3.8    92    1.8   260     2.4   999.00    685.4    999.0    999000   999000   999.0    999000   999.0
 338    0:35    3.8    92    1.9   260     2.2   999.00    685.4    999.0    999000   999000   999.0    999000   999.0
 338    0:40    3.8    92    1.9   259     2.5   999.00    685.4    999.0    999000   999000   999.0    999000   999.0
 338    0:45    3.7    92    1.9   259     2.9   999.00    685.2    999.0    999000   999000   999.0    999000   999.0
 338    0:50    3.6    92    2.3   258     6.8   999.00    685.2    999.0    999000   999000   999.0    999000   999.0
 338    0:55    3.6    92    2.1   258     6.8   999.00    685.2    999.0    999000   999000   999.0    999000   999.0
 338    1:00    3.5    92    4.4   259     8.9   999.00    685.2    999.0    999000   999000   999.0    999000   999.0
 338    1:05    3.5    91    3.7   258     8.7   999.00    685.2    999.0    999000   999000   999.0    999000   999.0
 338    1:10    3.4    91    2.0   258     3.5   999.00    685.1    999.0    999000   999000   999.0    999000   999.0
 338    1:15    3.3    91    1.9   258     3.7   999.00    685.1    999.0    999000   999000   999.0    999000   999.0
 338    1:20    3.3    91    2.1   259     6.5   999.00    685.1    999.0    999000   999000   999.0    999000   999.0
 338    1:25    3.2    91    2.5   258     9.4   999.00    685.1    999.0    999000   999000   999.0    999000   999.0
 338    1:30    3.2    91    3.4   257     8.5   999.00    685.0    999.0    999000   999000   999.0    999000   999.0
 338    1:35    3.1    91    2.2   257     5.3   999.00    685.1    999.0    999000   999000   999.0    999000   999.0
 338    1:40    3.1    91    6.9   255    12.4   999.00    685.2    999.0    999000   999000   999.0    999000   999.0
 338    1:45    3.0    91    4.8   256    10.9   999.00    685.3    999.0    999000   999000   999.0    999000   999.0
 338    1:50    3.0    91    5.8   257    13.2   999.00    685.3    999.0    999000   999000   999.0    999000   999.0
 338    1:55    2.9    91    7.5   246    15.8   999.00    685.3    999.0    999000   999000   999.0    999000   999.0
 338    2:00    2.9    91    4.9   231    10.6   999.00    685.2    999.0    999000   999000   999.0    999000   999.0
 338    2:05    2.8    91    6.9   214    11.1   999.00    685.2    999.0    999000   999000   999.0    999000   999.0
 338    2:10    2.8    91    2.8   212     7.9   999.00    685.3    999.0    999000   999000   999.0    999000   999.0
 338    2:15    2.7    91    6.0   214    13.5   999.00    685.3    999.0    999000   999000   999.0    999000   999.0
 338    2:20    2.6    91    4.5   214    11.8   999.00    685.3    999.0    999000   999000   999.0    999000   999.0
 338    2:25    2.6    91    2.6   217     7.4   999.00    685.3    999.0    999000   999000   999.0    999000   999.0
 338    2:30    2.6    91    3.5   217     8.9   999.00    685.3    999.0    999000   999000   999.0    999000   999.0
 338    2:35    2.5    91    2.2   219     7.0   999.00    685.2    999.0    999000   999000   999.0    999000   999.0
 338    2:40    2.5    91    5.4   219    18.0   999.00    685.2    999.0    999000   999000   999.0    999000   999.0
 338    2:45    2.5    91    6.1   218    12.2   999.00    685.2    999.0    999000   999000   999.0    999000   999.0
 338    2:50    2.4    91    6.6   218    16.5   999.00    685.2    999.0    999000   999000   999.0    999000   999.0
 338    2:55    2.3    91    3.3   217    10.0   999.00    685.1    999.0    999000   999000   999.0    999000   999.0
 338    3:00    2.3    91    3.9   218    10.2   999.00    685.1    999.0    999000   999000   999.0    999000   999.0
 338    3:05    2.2    91    2.9   219    10.2   999.00    685.1    999.0    999000   999000   999.0    999000   999.0
 338    3:10    2.2    91    1.9   219     3.3   999.00    685.0    999.0    999000   999000   999.0    999000   999.0
 338    3:15    2.1    91    2.9   219     7.8   999.00    685.0    999.0    999000   999000   999.0    999000   999.0
 338    3:20    2.0    90    5.3   219    10.0   999.00    685.0    999.0    999000   999000   999.0    999000   999.0
 338    3:25    1.9    90    2.7   219     7.4   999.00    685.0    999.0    999000   999000   999.0    999000   999.0
 338    3:30    1.8    90    4.1   219    11.3   999.00    685.0    999.0    999000   999000   999.0    999000   999.0
 338    3:35    1.7    90    5.0   219     9.4   999.00    685.1    999.0    999000   999000   999.0    999000   999.0
 338    3:40    1.7    90    1.9   219     3.1   999.00    685.0    999.0    999000   999000   999.0    999000   999.0
 338    3:45    1.7    90    3.7   219     9.1   999.00    685.1    999.0    999000   999000   999.0    999000   999.0
 338    3:50    1.7    90    2.2   219     6.8   999.00    685.0    999.0    999000   999000   999.0    999000   999.0
 338    3:55    1.7    90    2.8   219     8.1   999.00    684.9    999.0    999000   999000   999.0    999000   999.0
 338    4:00    1.6    90    4.3   219    10.9   999.00    684.9    999.0    999000   999000   999.0    999000   999.0
 338    4:05    1.6    90    2.2   219     7.2   999.00    685.0    999.0    999000   999000   999.0    999000   999.0
 338    4:10    1.6    90    3.1   219     9.4   999.00    685.0    999.0    999000   999000   999.0    999000   999.0
 338    4:15    1.6    90    3.2   215    11.5   999.00    684.9    999.0    999000   999000   999.0    999000   999.0
 338    4:20    1.6    90    6.9   218    14.4   999.00    684.9    999.0    999000   999000   999.0    999000   999.0
 338    4:25    1.6    90    6.1   216    14.1   999.00    684.9    999.0    999000   999000   999.0    999000   999.0
 338    4:30    1.6    90    5.9   214    16.7   999.00    685.0    999.0    999000   999000   999.0    999000   999.0
 338    4:35    1.5    90    3.0   214     9.8   999.00    685.1    999.0    999000   999000   999.0    999000   999.0
 338    4:40    1.5    90    8.6   212    15.6   999.00    685.1    999.0    999000   999000   999.0    999000   999.0
 338    4:45    1.5    90    2.7   210     9.6   999.00    685.1    999.0    999000   999000   999.0    999000   999.0
 338    4:50    1.5    90    2.1   211     5.3   999.00    685.1    999.0    999000   999000   999.0    999000   999.0
 338    4:55    1.4    90    3.2   211    10.2   999.00    685.1    999.0    999000   999000   999.0    999000   999.0
 338    5:00    1.4    90    2.6   212     8.5   999.00    685.0    999.0    999000   999000   999.0    999000   999.0
 338    5:05    1.4    90    5.7   212    12.0   999.00    684.9    999.0    999000   999000   999.0    999000   999.0
 338    5:10    1.4    90    7.8   213    17.2   999.00    684.9    999.0    999000   999000   999.0    999000   999.0
 338    5:15    1.4    90    8.4   215    18.0   999.00    684.8    999.0    999000   999000   999.0    999000   999.0
 338    5:20    1.4    90    9.5   218    16.5   999.00    684.8    999.0    999000   999000   999.0    999000   999.0
 338    5:25    1.4    90    8.3   219    16.1   999.00    684.9    999.0    999000   999000   999.0    999000   999.0
 338    5:30    1.3    90    7.0   220    17.6   999.00    684.8    999.0    999000   999000   999.0    999000   999.0
 338    5:35    1.3    90   10.1   221    16.9   999.00    684.7    999.0    999000   999000   999.0    999000   999.0
 338    5:40    1.3    90   12.1   221    19.1   999.00    684.7    999.0    999000   999000   999.0    999000   999.0
 338    5:45    1.3    90    8.9   222    15.0   999.00    684.6    999.0    999000   999000   999.0    999000   999.0
 338    5:50    1.3    90    8.9   223    13.5   999.00    684.6    999.0    999000   999000   999.0    999000   999.0
 338    5:55    1.3    90   10.0   223    14.4   999.00    684.6    999.0    999000   999000   999.0    999000   999.0
 338    6:00    1.3    90    7.9   223    12.6   999.00    684.6    999.0    999000   999000   999.0    999000   999.0
 338    6:05    1.3    90    7.6   223    13.7   999.00    684.7    999.0    999000   999000   999.0    999000   999.0
 338    6:10    1.3    90    5.4   224    11.1   999.00    684.7    999.0    999000   999000   999.0    999000   999.0
 338    6:15    1.3    90    4.9   224    11.7   999.00    684.8    999.0    999000   999000   999.0    999000   999.0
 338    6:20    1.2    90    8.2   225    11.1   999.00    684.7    999.0    999000   999000   999.0    999000   999.0
 338    6:25    1.2    90    8.8   226    13.0   999.00    684.9    999.0    999000   999000   999.0    999000   999.0
 338    6:30    1.2    90    8.9   226    14.1   999.00    684.9    999.0    999000   999000   999.0    999000   999.0
 338    6:35    1.2    90    7.2   227    12.8   999.00    684.9    999.0    999000   999000   999.0    999000   999.0
 338    6:40    1.2    90    3.1   227     8.7   999.00    685.0    999.0    999000   999000   999.0    999000   999.0
 338    6:45    1.2    90    4.6   228    10.0   999.00    685.0    999.0    999000   999000   999.0    999000   999.0
 338    6:50    1.2    90    7.1   229    11.1   999.00    685.0    999.0    999000   999000   999.0    999000   999.0
 338    6:55    1.2    90    7.9   230    13.9   999.00    685.1    999.0    999000   999000   999.0    999000   999.0
 338    7:00    1.2    90    7.2   230    10.0   999.00    685.1    999.0    999000   999000   999.0    999000   999.0
 338    7:05    1.2    90    8.3   231    12.8   999.00    685.1    999.0    999000   999000   999.0    999000   999.0
 338    7:10    1.2    90    6.0   231     9.8   999.00    685.2    999.0    999000   999000   999.0    999000   999.0
 338    7:15    1.2    90    2.6   232     7.2   999.00    685.2    999.0    999000   999000   999.0    999000   999.0
 338    7:20    1.2    90    4.8   233    10.4   999.00    685.3    999.0    999000   999000   999.0    999000   999.0
 338    7:25    1.2    90    8.6   234    12.8   999.00    685.3    999.0    999000   999000   999.0    999000   999.0
 338    7:30    1.2    90    8.2   234    10.7   999.00    685.4    999.0    999000   999000   999.0    999000   999.0
 338    7:35    1.2    90    4.1   234     9.6   999.00    685.4    999.0    999000   999000   999.0    999000   999.0
 338    7:40    1.3    90    1.9   234     4.0   999.00    685.3    999.0    999000   999000   999.0    999000   999.0
 338    7:45    1.3    90    3.0   235     9.8   999.00    685.4    999.0    999000   999000   999.0    999000   999.0
 338    7:50    1.4    91    1.9   236     3.3   999.00    685.4    999.0    999000   999000   999.0    999000   999.0
 338    7:55    1.4    91    2.0   236     5.0   999.00    685.4    999.0    999000   999000   999.0    999000   999.0
 338    8:00    1.4    91    2.0   236     4.0   999.00    685.4    999.0    999000   999000   999.0    999000   999.0
 338    8:05    1.5    91    2.3   237     7.6   999.00    685.4    999.0    999000   999000   999.0    999000   999.0
 338    8:10    1.5    91    5.5   238    12.0   999.00    685.4    999.0    999000   999000   999.0    999000   999.0
 338    8:15    1.5    91    8.2   236    13.5   999.00    685.4    999.0    999000   999000   999.0    999000   999.0
 338    8:20    1.6    91   10.1   228    14.8   999.00    685.4    999.0    999000   999000   999.0    999000   999.0
 338    8:25    1.7    91    7.2   214    14.6   999.00    685.3    999.0    999000   999000   999.0    999000   999.0
 338    8:30    1.8    91    3.0   206     6.8   999.00    685.4    999.0    999000   999000   999.0    999000   999.0
 338    8:35    1.8    91    6.7   208    12.6   999.00    685.4    999.0    999000   999000   999.0    999000   999.0
 338    8:40    1.9    91    8.1   211    14.1   999.00    685.4    999.0    999000   999000   999.0    999000   999.0
 338    8:45    2.0    91    9.6   218    16.1   999.00    685.5    999.0    999000   999000   999.0    999000   999.0
 338    8:50    2.1    91    9.0   217    17.1   999.00    685.5    999.0    999000   999000   999.0    999000   999.0
 338    8:55    2.3    91    7.2   209    15.6   999.00    685.5    999.0    999000   999000   999.0    999000   999.0
 338    9:00    2.5    91    2.6   211     8.5   999.00    685.6    999.0    999000   999000   999.0    999000   999.0
 338    9:05    2.7    91    2.0   212     3.1   999.00    685.6    999.0    999000   999000   999.0    999000   999.0
 338    9:10    2.9    92    6.0   213    13.3   999.00    685.6    999.0    999000   999000   999.0    999000   999.0
 338    9:15    3.1    92    6.9   215    16.1   999.00    685.6    999.0    999000   999000   999.0    999000   999.0
 338    9:20    3.4    92    4.4   215    11.1   999.00    685.7    999.0    999000   999000   999.0    999000   999.0
 338    9:25    3.7    92    3.6   215    12.6   999.00    685.6    999.0    999000   999000   999.0    999000   999.0
 338    9:30    4.0    93    4.7   216    16.7   999.00    685.7    999.0    999000   999000   999.0    999000   999.0
 338    9:35    4.3    93    4.6   216     9.2   999.00    685.6    999.0    999000   999000   999.0    999000   999.0
 338    9:40    4.7    93    3.3   217     7.9   999.00    685.7    999.0    999000   999000   999.0    999000   999.0
 338    9:45    5.1    94    5.3   217    11.3   999.00    685.7    999.0    999000   999000   999.0    999000   999.0
 338    9:50    5.4    94    3.3   217     7.9   999.00    685.8    999.0    999000   999000   999.0    999000   999.0
 338    9:55    5.8    94    4.0   217     9.4   999.00    685.8    999.0    999000   999000   999.0    999000   999.0
 338   10:00    6.4    95    2.4   218     6.1   999.00    685.8    999.0    999000   999000   999.0    999000   999.0
 338   10:05    7.0    96    3.0   217    10.4   999.00    685.8    999.0    999000   999000   999.0    999000   999.0
 338   10:10    7.2    96    6.2   217    16.3   999.00    685.8    999.0    999000   999000   999.0    999000   999.0
 338   10:15    7.4    96    8.2   218    16.7   999.00    685.7    999.0    999000   999000   999.0    999000   999.0
 338   10:20    7.8    96    7.8   218    17.2   999.00    685.7    999.0    999000   999000   999.0    999000   999.0
 338   10:25    8.3    96    8.6   218    15.0   999.00    685.7    999.0    999000   999000   999.0    999000   999.0
 338   10:30    8.6    97    8.7   219    19.3   999.00    685.7    999.0    999000   999000   999.0    999000   999.0
 338   10:35    9.1    97    6.6   220    13.5   999.00    685.7    999.0    999000   999000   999.0    999000   999.0
 338   10:40    9.8    98    5.0   220    11.8   999.00    685.7    999.0    999000   999000   999.0    999000   999.0
 338   10:45   10.7    99    5.5   221    11.7   999.00    685.7    999.0    999000   999000   999.0    999000   999.0
 338   10:50   11.4   100    7.6   221    13.7   999.00    685.7    999.0    999000   999000   999.0    999000   999.0
 338   10:55   11.6   100    6.2   221    14.3   999.00    685.7    999.0    999000   999000   999.0    999000   999.0
 338   11:00   11.6   100    8.2   221    16.5   999.00    685.7    999.0    999000   999000   999.0    999000   999.0
 338   11:05   11.3   100    9.2   222    15.8   999.00    685.6    999.0    999000   999000   999.0    999000   999.0
 338   11:10   11.2    99    9.4   222    15.9   999.00    685.5    999.0    999000   999000   999.0    999000   999.0
 338   11:15   11.4    99    6.7   222    14.1   999.00    685.5    999.0    999000   999000   999.0    999000   999.0
 338   11:20   11.6   100    8.3   222    14.3   999.00    685.5    999.0    999000   999000   999.0    999000   999.0
 338   11:25   11.5    99    7.5   222    14.4   999.00    685.4    999.0    999000   999000   999.0    999000   999.0
 338   11:30   11.7   100    9.4   223    16.9   999.00    685.4    999.0    999000   999000   999.0    999000   999.0
 338   11:35   12.0   100    9.3   223    13.9   999.00    685.3    999.0    999000   999000   999.0    999000   999.0
 338   11:40   12.0   100    5.3   223    17.4   999.00    685.4    999.0    999000   999000   999.0    999000   999.0
 338   11:45   11.9   100    6.3   223    14.8   999.00    685.3    999.0    999000   999000   999.0    999000   999.0
 338   11:50   11.9   100    9.0   223    16.1   999.00    685.3    999.0    999000   999000   999.0    999000   999.0
 338   11:55   12.0   100   13.4   224    20.0   999.00    685.2    999.0    999000   999000   999.0    999000   999.0
 338   12:00   11.9    99    9.5   224    16.1   999.00    685.2    999.0    999000   999000   999.0    999000   999.0
 338   12:05   11.8    99   10.5   224    17.1   999.00    685.0    999.0    999000   999000   999.0    999000   999.0
 338   12:10   11.8    99   11.8   224    16.7   999.00    685.0    999.0    999000   999000   999.0    999000   999.0
 338   12:15   11.9    99   10.0   224    15.8   999.00    685.0    999.0    999000   999000   999.0    999000   999.0
 338   12:20   12.1    99    7.3   223    11.5   999.00    684.9    999.0    999000   999000   999.0    999000   999.0
 338   12:25   12.2    99    7.7   223    13.3   999.00    684.8    999.0    999000   999000   999.0    999000   999.0
 338   12:30   12.5    99   10.3   223    15.2   999.00    684.7    999.0    999000   999000   999.0    999000   999.0
 338   12:35   12.7    99   10.3   224    17.6   999.00    684.7    999.0    999000   999000   999.0    999000   999.0
 338   12:40   12.8    99    9.8   224    15.9   999.00    684.7    999.0    999000   999000   999.0    999000   999.0
 338   12:45   12.7    99   10.8   224    18.4   999.00    684.7    999.0    999000   999000   999.0    999000   999.0
 338   12:50   12.5    99    8.5   224    12.6   999.00    684.8    999.0    999000   999000   999.0    999000   999.0
 338   12:55   12.4    99   10.5   224    17.4   999.00    684.8    999.0    999000   999000   999.0    999000   999.0
 338   13:00   12.1    98    8.7   224    15.9   999.00    684.7    999.0    999000   999000   999.0    999000   999.0
 338   13:05   11.9    98    7.6   224    14.1   999.00    684.7    999.0    999000   999000   999.0    999000   999.0
 338   13:10   11.8    98   10.0   224    17.2   999.00    684.7    999.0    999000   999000   999.0    999000   999.0
 338   13:15   11.6    97   10.6   232    18.0   999.00    684.7    999.0    999000   999000   999.0    999000   999.0
 338   13:20   11.5    97    8.2   228    17.6   999.00    684.7    999.0    999000   999000   999.0    999000   999.0
 338   13:25   11.4    97   10.6   227    15.4   999.00    684.7    999.0    999000   999000   999.0    999000   999.0
 338   13:30   11.4    97   12.9   227    18.7   999.00    684.6    999.0    999000   999000   999.0    999000   999.0
 338   13:35   11.3    97   12.2   227    19.7   999.00    684.6    999.0    999000   999000   999.0    999000   999.0
 338   13:40   11.2    97    9.5   227    18.5   999.00    684.7    999.0    999000   999000   999.0    999000   999.0
 338   13:45   11.2    97   11.6   227    17.4   999.00    684.7    999.0    999000   999000   999.0    999000   999.0
 338   13:50   11.1    97   13.2   228    23.4   999.00    684.8    999.0    999000   999000   999.0    999000   999.0
 338   13:55   11.0    97   12.5   228    17.6   999.00    684.8    999.0    999000   999000   999.0    999000   999.0
 338   14:00   11.0    97   13.3   228    23.0   999.00    684.7    999.0    999000   999000   999.0    999000   999.0
 338   14:05   10.9    97   14.5   229    20.2   999.00    684.8    999.0    999000   999000   999.0    999000   999.0
 338   14:10   10.9    98   11.8   229    19.5   999.00    684.7    999.0    999000   999000   999.0    999000   999.0
 338   14:15   10.8    98   12.5   229    17.6   999.00    684.8    999.0    999000   999000   999.0    999000   999.0
 338   14:20   10.7    98   11.3   229    16.5   999.00    684.8    999.0    999000   999000   999.0    999000   999.0
 338   14:25   10.6    98   11.8   230    16.3   999.00    684.8    999.0    999000   999000   999.0    999000   999.0
 338   14:30   10.7    98    5.8   230    13.5   999.00    684.8    999.0    999000   999000   999.0    999000   999.0
 338   14:35   10.6    98    8.2   230    15.4   999.00    684.9    999.0    999000   999000   999.0    999000   999.0
 338   14:40   10.5    97    3.5   230    14.8   999.00    684.9    999.0    999000   999000   999.0    999000   999.0
 338   14:45   10.4    97    7.3   229    13.3   999.00    684.9    999.0    999000   999000   999.0    999000   999.0
 338   14:50   10.3    97    2.8   229    10.6   999.00    684.8    999.0    999000   999000   999.0    999000   999.0
 338   14:55   10.3    97   10.0   228    13.0   999.00    684.9    999.0    999000   999000   999.0    999000   999.0
 338   15:00   10.2    97    5.1   228    12.4   999.00    684.9    999.0    999000   999000   999.0    999000   999.0
 338   15:05   10.1    97   11.4   228    17.1   999.00    684.9    999.0    999000   999000   999.0    999000   999.0
 338   15:10    9.9    97   13.9   229    18.4   999.00    684.9    999.0    999000   999000   999.0    999000   999.0
 338   15:15    9.8    97   12.3   227    17.6   999.00    684.8    999.0    999000   999000   999.0    999000   999.0
 338   15:20    9.6    97   11.2   226    14.8   999.00    684.8    999.0    999000   999000   999.0    999000   999.0
 338   15:25    9.5    96   10.9   226    14.6   999.00    684.9    999.0    999000   999000   999.0    999000   999.0
 338   15:30    9.4    96   10.2   227    15.2   999.00    685.0    999.0    999000   999000   999.0    999000   999.0
 338   15:35    9.2    96    8.1   227    14.8   999.00    685.0    999.0    999000   999000   999.0    999000   999.0
 338   15:40    9.1    96    8.5   228    13.5   999.00    685.0    999.0    999000   999000   999.0    999000   999.0
 338   15:45    9.0    96    4.4   227    10.0   999.00    685.1    999.0    999000   999000   999.0    999000   999.0
 338   15:50    8.9    96    8.8   228    11.8   999.00    685.2    999.0    999000   999000   999.0    999000   999.0
 338   15:55    8.7    96    5.6   228     9.4   999.00    685.2    999.0    999000   999000   999.0    999000   999.0
 338   16:00    8.6    96    6.5   228    12.8   999.00    685.2    999.0    999000   999000   999.0    999000   999.0
 338   16:05    8.5    96    6.8   228    13.5   999.00    685.2    999.0    999000   999000   999.0    999000   999.0
 338   16:10    8.4    95    7.2   228    12.0   999.00    685.2    999.0    999000   999000   999.0    999000   999.0
 338   16:15    8.3    95    1.8   228     2.0   999.00    685.2    999.0    999000   999000   999.0    999000   999.0
 338   16:20    8.2    95    1.8   228     2.0   999.00    685.1    999.0    999000   999000   999.0    999000   999.0
 338   16:25    8.1    95    1.8   229     2.2   999.00    685.0    999.0    999000   999000   999.0    999000   999.0
 338   16:30    8.0    95    7.7   228    12.2   999.00    685.0    999.0    999000   999000   999.0    999000   999.0
 338   16:35    7.9    95    2.9   229     8.9   999.00    684.9    999.0    999000   999000   999.0    999000   999.0
 338   16:40    7.8    95   11.8   229    15.6   999.00    684.9    999.0    999000   999000   999.0    999000   999.0
 338   16:45    7.6    95   11.0   232    14.8   999.00    684.9    999.0    999000   999000   999.0    999000   999.0
 338   16:50    7.6    94   11.7   233    16.1   999.00    684.9    999.0    999000   999000   999.0    999000   999.0
 338   16:55    7.4    94   10.0   233    14.3   999.00    685.0    999.0    999000   999000   999.0    999000   999.0
 338   17:00    7.3    94   13.5   236    18.2   999.00    685.0    999.0    999000   999000   999.0    999000   999.0
 338   17:05    7.2    94   15.5   237    20.0   999.00    685.0    999.0    999000   999000   999.0    999000   999.0
 338   17:10    7.1    94   16.5   238    22.5   999.00    685.0    999.0    999000   999000   999.0    999000   999.0
 338   17:15    7.0    94   15.2   240    19.1   999.00    685.0    999.0    999000   999000   999.0    999000   999.0
 338   17:20    6.9    94   16.2   244    20.0   999.00    685.0    999.0    999000   999000   999.0    999000   999.0
 338   17:25    6.8    94   13.0   251    21.3   999.00    685.1    999.0    999000   999000   999.0    999000   999.0
 338   17:30    6.8    94   13.7   243    18.9   999.00    685.0    999.0    999000   999000   999.0    999000   999.0
 338   17:35    6.7    94   12.1   248    18.0   999.00    685.1    999.0    999000   999000   999.0    999000   999.0
 338   17:40    6.7    94   11.3   251    19.1   999.00    685.1    999.0    999000   999000   999.0    999000   999.0
 338   17:45    6.6    94   13.3   252    19.9   999.00    685.1    999.0    999000   999000   999.0    999000   999.0
 338   17:50    6.6    94   11.0   251    16.7   999.00    685.2    999.0    999000   999000   999.0    999000   999.0
 338   17:55    6.6    94   12.2   254    17.4   999.00    685.2    999.0    999000   999000   999.0    999000   999.0
 338   18:00    6.5    94   12.0   249    18.9   999.00    685.3    999.0    999000   999000   999.0    999000   999.0
 338   18:05    6.5    94   10.3   247    16.9   999.00    685.3    999.0    999000   999000   999.0    999000   999.0
 338   18:10    6.5    94   14.3   253    19.3   999.00    685.3    999.0    999000   999000   999.0    999000   999.0
 338   18:15    6.5    94   10.9   252    19.5   999.00    685.3    999.0    999000   999000   999.0    999000   999.0
 338   18:20    6.5    94   12.3   238    17.2   999.00    685.3    999.0    999000   999000   999.0    999000   999.0
 338   18:25    6.4    94   11.5   239    15.9   999.00    685.3    999.0    999000   999000   999.0    999000   999.0
 338   18:30    6.4    94    3.6   240    14.1   999.00    685.4    999.0    999000   999000   999.0    999000   999.0
 338   18:35    6.5    94   12.4   241    19.3   999.00    685.4    999.0    999000   999000   999.0    999000   999.0
 338   18:40    6.4    94   11.7   243    18.4   999.00    685.5    999.0    999000   999000   999.0    999000   999.0
 338   18:45    6.4    94   11.7   243    14.6   999.00    685.6    999.0    999000   999000   999.0    999000   999.0
 338   18:50    6.5    94   12.2   243    15.2   999.00    685.6    999.0    999000   999000   999.0    999000   999.0
 338   18:55    6.3    94   10.2   243    13.9   999.00    685.7    999.0    999000   999000   999.0    999000   999.0
 338   19:00    6.4    94   10.6   242    14.1   999.00    685.6    999.0    999000   999000   999.0    999000   999.0
 338   19:05    6.4    93   12.3   243    17.6   999.00    685.5    999.0    999000   999000   999.0    999000   999.0
 338   19:10    6.3    93   14.8   246    20.6   999.00    685.6    999.0    999000   999000   999.0    999000   999.0
 338   19:15    6.3    93   13.5   247    17.6   999.00    685.6    999.0    999000   999000   999.0    999000   999.0
 338   19:20    6.3    93   12.2   247    16.3   999.00    685.7    999.0    999000   999000   999.0    999000   999.0
 338   19:25    6.3    93   11.2   247    16.5   999.00    685.8    999.0    999000   999000   999.0    999000   999.0
 338   19:30    6.3    93   15.2   247    18.2   999.00    685.7    999.0    999000   999000   999.0    999000   999.0
 338   19:35    6.3    93   14.5   247    18.4   999.00    685.9    999.0    999000   999000   999.0    999000   999.0
 338   19:40    6.3    93   14.1   247    17.4   999.00    686.0    999.0    999000   999000   999.0    999000   999.0
 338   19:45    6.3    93   14.6   248    22.6   999.00    686.0    999.0    999000   999000   999.0    999000   999.0
 338   19:50    6.3    93   14.3   249    21.7   999.00    686.0    999.0    999000   999000   999.0    999000   999.0
 338   19:55    6.3    93   14.2   250    20.2   999.00    686.0    999.0    999000   999000   999.0    999000   999.0
 338   20:00    6.3    93   12.9   251    17.8   999.00    685.9    999.0    999000   999000   999.0    999000   999.0
 338   20:05    6.3    93   17.2   252    24.3   999.00    685.9    999.0    999000   999000   999.0    999000   999.0
 338   20:10    6.3    93   14.8   251    21.0   999.00    685.8    999.0    999000   999000   999.0    999000   999.0
 338   20:15    6.3    93   14.2   253    19.7   999.00    685.8    999.0    999000   999000   999.0    999000   999.0
 338   20:20    6.3    93   13.8   239    20.6   999.00    685.8    999.0    999000   999000   999.0    999000   999.0
 338   20:25    6.3    93   13.9   239    18.5   999.00    685.7    999.0    999000   999000   999.0    999000   999.0
 338   20:30    6.3    93   12.2   242    19.5   999.00    685.7    999.0    999000   999000   999.0    999000   999.0
 338   20:35    6.3    93   12.3   244    17.1   999.00    685.7    999.0    999000   999000   999.0    999000   999.0
 338   20:40    6.3    93   11.3   245    15.9   999.00    685.8    999.0    999000   999000   999.0    999000   999.0
 338   20:45    6.3    93   11.1   245    14.4   999.00    685.8    999.0    999000   999000   999.0    999000   999.0

Return to DRI Storm Peak Lab. graphs page.


Western Regional Climate Center,wrcc@dri.edu